createdAt,value
2018-11-13T00:03:45.088Z,99367.53
2018-11-13T00:08:45.645Z,99373.05
2018-11-13T00:13:46.265Z,99372.16
2018-11-13T00:18:46.930Z,99366.91
2018-11-13T00:23:47.494Z,99372.52
2018-11-13T00:28:49.096Z,99394.81
2018-11-13T00:33:50.331Z,99402.88
2018-11-13T00:38:51.044Z,99420.11
2018-11-13T00:43:51.698Z,99410.73
2018-11-13T00:48:52.267Z,99413.85
2018-11-13T00:53:53.040Z,99417.30
2018-11-13T00:58:53.597Z,99438.14
2018-11-13T01:03:54.182Z,99429.64
2018-11-13T01:08:54.825Z,99426.34
2018-11-13T01:13:55.487Z,99429.95
2018-11-13T01:18:56.051Z,99431.77
2018-11-13T01:23:56.748Z,99445.40
2018-11-13T01:28:57.325Z,99429.33
2018-11-13T01:33:57.993Z,99437.05
2018-11-13T01:38:58.580Z,99442.62
2018-11-13T01:43:59.190Z,99452.23
2018-11-13T01:48:59.819Z,99426.24
2018-11-13T01:54:00.393Z,99429.52
2018-11-13T01:59:01.028Z,99434.91
2018-11-13T02:04:01.583Z,99438.84
2018-11-13T02:09:02.217Z,99455.38
2018-11-13T02:14:02.862Z,99448.44
2018-11-13T02:19:03.453Z,99465.63
2018-11-13T02:24:04.067Z,99469.88
2018-11-13T02:29:04.676Z,99478.13
2018-11-13T02:34:05.369Z,99471.91
2018-11-13T02:39:06.018Z,99467.50
2018-11-13T02:44:06.687Z,99465.37
2018-11-13T02:49:07.324Z,99456.37
2018-11-13T02:54:07.910Z,99457.67
2018-11-13T02:59:08.491Z,99466.34
2018-11-13T03:04:09.062Z,99471.52
2018-11-13T03:09:09.706Z,99468.48
2018-11-13T03:14:10.359Z,99481.70
2018-11-13T03:19:11.029Z,99467.63
2018-11-13T03:24:11.670Z,99462.39
2018-11-13T03:29:12.314Z,99475.11
2018-11-13T03:34:12.897Z,99471.84
2018-11-13T03:39:13.494Z,99477.23
2018-11-13T03:44:14.080Z,99482.47
2018-11-13T03:49:14.969Z,99486.38
2018-11-13T03:54:15.745Z,99505.48
2018-11-13T03:59:16.483Z,99511.84
2018-11-13T04:04:17.167Z,99515.13
2018-11-13T04:09:17.767Z,99524.12
2018-11-13T04:14:18.450Z,99527.03
2018-11-13T04:19:19.076Z,99515.15
2018-11-13T04:24:19.748Z,99519.29
2018-11-13T04:29:20.584Z,99523.23
2018-11-13T04:34:21.225Z,99529.45
2018-11-13T04:39:21.839Z,99540.52
2018-11-13T04:44:22.460Z,99546.61
2018-11-13T04:49:23.099Z,99558.25
2018-11-13T04:54:23.769Z,99548.40
2018-11-13T04:59:24.488Z,99558.25
2018-11-13T05:04:25.132Z,99574.66
2018-11-13T05:09:25.794Z,99570.36
2018-11-13T05:14:26.451Z,99563.86
2018-11-13T05:19:27.005Z,99575.32
2018-11-13T05:24:27.728Z,99572.95
2018-11-13T05:29:31.565Z,99579.17
2018-11-13T05:34:32.342Z,99595.89
2018-11-13T05:39:33.087Z,99613.13
2018-11-13T05:44:33.802Z,99616.00
2018-11-13T05:49:34.449Z,99620.95
2018-11-13T05:54:35.221Z,99613.98
2018-11-13T05:59:38.831Z,99610.64
2018-11-13T06:04:39.896Z,99602.66
2018-11-13T06:09:41.626Z,99615.97
2018-11-13T06:14:42.316Z,99621.88
2018-11-13T06:19:45.551Z,99615.30
2018-11-13T06:24:46.428Z,99647.95
2018-11-13T06:29:47.235Z,99658.29
2018-11-13T06:34:47.934Z,99661.31
2018-11-13T06:39:48.621Z,99667.10
2018-11-13T06:44:49.572Z,99669.54
2018-11-13T06:49:50.352Z,99681.64
2018-11-13T06:54:51.012Z,99709.43
2018-11-13T06:59:51.700Z,99717.32
2018-11-13T07:04:52.335Z,99735.50
2018-11-13T07:09:52.981Z,99746.44
2018-11-13T07:14:53.667Z,99749.17
2018-11-13T07:19:54.536Z,99733.36
2018-11-13T07:30:20.124Z,99718.28
2018-11-13T07:35:20.830Z,99753.55
2018-11-13T07:40:22.555Z,99781.71
2018-11-13T07:45:23.388Z,99749.55
2018-11-13T07:55:30.495Z,99774.50
2018-11-13T08:00:35.847Z,99793.09
2018-11-13T08:05:37.225Z,99797.88
2018-11-13T08:10:37.895Z,99804.33
2018-11-13T08:15:49.157Z,99804.56
2018-11-13T08:20:50.628Z,99807.79
2018-11-13T08:25:51.296Z,99822.99
2018-11-13T08:30:52.097Z,99834.47
2018-11-13T08:35:52.816Z,99845.64
2018-11-13T08:40:53.585Z,99851.48
2018-11-13T08:51:05.365Z,99857.62
2018-11-13T08:56:06.046Z,99869.73
2018-11-13T09:01:09.681Z,99877.80
2018-11-13T09:06:10.412Z,99884.12
2018-11-13T09:11:11.144Z,99892.64
2018-11-13T09:16:11.817Z,99907.94
2018-11-13T09:21:13.159Z,99917.65
2018-11-13T09:26:13.949Z,99916.66
2018-11-13T09:31:14.729Z,99921.80
2018-11-13T09:36:16.656Z,99928.83
2018-11-13T09:41:17.466Z,99931.68
2018-11-13T09:46:18.109Z,99929.44
2018-11-13T09:51:22.041Z,99931.02
2018-11-13T09:56:26.468Z,99938.87
2018-11-13T10:06:38.422Z,99944.83
2018-11-13T10:11:43.727Z,99942.83
2018-11-13T10:16:44.409Z,99939.14
2018-11-13T10:21:45.101Z,99943.36
2018-11-13T10:26:45.720Z,99942.97
2018-11-13T10:31:46.439Z,99930.61
2018-11-13T10:36:47.118Z,99946.53
2018-11-13T10:41:47.828Z,99954.58
2018-11-13T10:46:48.454Z,99948.80
2018-11-13T10:51:49.106Z,99940.05
2018-11-13T10:56:50.848Z,99941.27
2018-11-13T11:01:51.499Z,99938.50
2018-11-13T11:06:52.103Z,99941.72
2018-11-13T11:11:52.831Z,99946.36
2018-11-13T11:16:53.555Z,99949.83
2018-11-13T11:21:54.197Z,99936.14
2018-11-13T11:26:54.832Z,99934.70
2018-11-13T11:31:55.433Z,99938.02
2018-11-13T11:36:56.157Z,99929.37
2018-11-13T11:41:56.813Z,99955.56
2018-11-13T11:46:57.479Z,99949.43
2018-11-13T11:51:58.203Z,99948.08
2018-11-13T11:56:58.828Z,99936.59
2018-11-13T12:01:59.516Z,99959.47
2018-11-13T12:07:00.207Z,99954.53
2018-11-13T12:12:01.075Z,99949.80
2018-11-13T12:17:01.766Z,99934.27
2018-11-13T12:22:03.499Z,99958.23
2018-11-13T12:27:04.135Z,99962.86
2018-11-13T12:32:04.844Z,99956.44
2018-11-13T12:37:05.583Z,99955.45
2018-11-13T12:42:06.323Z,99954.43
2018-11-13T12:47:06.979Z,99943.02
2018-11-13T12:52:07.653Z,99963.50
2018-11-13T12:57:08.402Z,99967.12
2018-11-13T13:02:09.316Z,99969.94
2018-11-13T13:07:10.312Z,99969.94
2018-11-13T13:12:11.136Z,99962.39
2018-11-13T13:17:11.862Z,99966.39
2018-11-13T13:22:12.542Z,99966.25
2018-11-13T13:27:13.165Z,99963.77
2018-11-13T13:37:20.113Z,99957.83
2018-11-13T13:42:20.771Z,99969.45
2018-11-13T13:47:21.384Z,99984.04
2018-11-13T13:52:21.970Z,99991.73
2018-11-13T13:57:22.584Z,99990.62
2018-11-13T14:02:23.237Z,100000.77
2018-11-13T14:07:24.835Z,100007.10
2018-11-13T14:12:25.470Z,100030.30
2018-11-13T14:17:26.096Z,100029.96
2018-11-13T14:22:26.670Z,100035.55
2018-11-13T14:27:28.146Z,100042.17
2018-11-13T14:32:28.965Z,100044.81
2018-11-13T14:37:29.664Z,100053.87
2018-11-13T14:42:30.357Z,100055.80
2018-11-13T14:47:30.980Z,100084.53
2018-11-13T14:52:31.681Z,100092.73
2018-11-13T14:57:32.477Z,100089.96
2018-11-13T15:07:44.923Z,100102.73
2018-11-13T15:12:48.048Z,100114.92
2018-11-13T15:17:48.919Z,100113.55
2018-11-13T15:22:49.588Z,100130.32
2018-11-13T15:27:50.294Z,100139.39
2018-11-13T15:32:59.652Z,100146.98
2018-11-13T15:38:00.584Z,100148.00
2018-11-13T15:43:01.337Z,100151.46
2018-11-13T15:48:03.947Z,100156.73
2018-11-13T15:53:07.914Z,100164.64
2018-11-13T15:58:08.711Z,100175.31
2018-11-13T16:03:09.544Z,100179.98
2018-11-13T16:08:10.301Z,100185.36
2018-11-13T16:13:10.986Z,100194.25
2018-11-13T16:18:11.757Z,100210.47
2018-11-13T16:23:13.361Z,100216.73
2018-11-13T16:28:15.569Z,100217.21
2018-11-13T16:33:17.039Z,100223.83
2018-11-13T16:38:17.893Z,100231.69
2018-11-13T16:43:18.487Z,100236.70
2018-11-13T16:48:19.392Z,100238.66
2018-11-13T16:53:19.979Z,100249.33
2018-11-13T16:58:20.814Z,100257.08
2018-11-13T17:03:21.551Z,100260.86
2018-11-13T17:08:22.493Z,100267.00
2018-11-13T17:19:47.597Z,100272.17
2018-11-13T17:24:48.364Z,100282.52
2018-11-13T17:29:49.064Z,100286.35
2018-11-13T17:34:49.840Z,100287.67
2018-11-13T17:39:50.514Z,100296.81
2018-11-13T17:44:51.142Z,100305.42
2018-11-13T17:49:52.057Z,100308.17
2018-11-13T17:54:52.654Z,100312.48
2018-11-13T17:59:53.305Z,100312.22
2018-11-13T18:04:54.037Z,100320.31
2018-11-13T18:09:54.741Z,100307.21
2018-11-13T18:14:55.479Z,100315.30
2018-11-13T18:19:56.258Z,100317.30
2018-11-13T18:24:57.022Z,100319.77
2018-11-13T18:29:57.660Z,100319.08
2018-11-13T18:34:58.353Z,100319.59
2018-11-13T18:39:58.997Z,100316.79
2018-11-13T18:44:59.750Z,100323.09
2018-11-13T18:50:00.533Z,100335.22
2018-11-13T18:55:01.241Z,100336.30
2018-11-13T19:00:01.943Z,100341.64
2018-11-13T19:05:02.646Z,100331.57
2018-11-13T19:10:03.338Z,100335.05
2018-11-13T19:15:04.097Z,100341.83
2018-11-13T19:20:04.848Z,100333.83
2018-11-13T19:25:05.368Z,100343.09
2018-11-13T19:30:06.065Z,100353.11
2018-11-13T19:35:06.815Z,100354.91
2018-11-13T19:40:07.410Z,100364.04
2018-11-13T19:53:07.811Z,100373.13
2018-11-13T19:58:08.684Z,100372.48
2018-11-13T20:03:13.412Z,100374.97
2018-11-13T20:08:14.432Z,100379.70
2018-11-13T20:13:15.413Z,100385.16
2018-11-13T20:18:16.187Z,100385.42
2018-11-13T20:23:16.838Z,100392.30
2018-11-13T20:28:19.743Z,100399.06
2018-11-13T20:48:40.219Z,100411.75
2018-11-13T20:53:41.041Z,100411.65
2018-11-13T20:58:52.464Z,100416.38
2018-11-13T21:03:57.664Z,100423.72
2018-11-13T21:08:59.603Z,100422.55
2018-11-13T21:19:46.495Z,100425.26
2018-11-13T21:24:47.217Z,100425.71
2018-11-13T21:29:47.959Z,100425.61
2018-11-13T21:34:48.715Z,100422.78
2018-11-13T21:39:49.446Z,100432.02
2018-11-13T21:44:50.150Z,100441.02
2018-11-13T21:49:50.907Z,100439.96
2018-11-13T21:54:51.438Z,100433.09
2018-11-13T21:59:52.072Z,100441.15
2018-11-13T22:04:52.830Z,100441.86
2018-11-13T22:09:53.646Z,100438.42
2018-11-13T22:14:54.193Z,100445.77
2018-11-13T22:19:54.874Z,100446.36
2018-11-13T22:24:56.649Z,100448.38
2018-11-13T22:29:57.331Z,100442.45
2018-11-13T22:34:58.187Z,100443.28
2018-11-13T22:39:58.861Z,100448.13
2018-11-13T22:44:59.560Z,100444.53
2018-11-13T22:50:00.220Z,100441.41
2018-11-13T22:55:00.864Z,100439.88
2018-11-13T23:00:01.548Z,100442.97
2018-11-13T23:05:02.283Z,100455.13
2018-11-13T23:10:02.902Z,100449.19
2018-11-13T23:15:03.578Z,100454.05
2018-11-13T23:20:04.182Z,100448.47
2018-11-13T23:25:04.759Z,100454.98
2018-11-13T23:30:05.409Z,100453.05
2018-11-13T23:35:06.283Z,100456.47
2018-11-13T23:40:06.614Z,100459.28
2018-11-13T23:45:07.262Z,100461.30
2018-11-13T23:50:07.897Z,100464.57
2018-11-13T23:55:08.568Z,100459.77
